createdAt,value
2018-11-13T00:02:06.308Z,6.90
2018-11-13T00:04:34.707Z,7.80
2018-11-13T00:07:03.165Z,5.67
2018-11-13T00:09:31.572Z,7.83
2018-11-13T00:11:59.956Z,6.77
2018-11-13T00:14:28.840Z,5.90
2018-11-13T00:16:57.253Z,5.50
2018-11-13T00:19:25.696Z,6.00
2018-11-13T00:21:54.098Z,4.50
2018-11-13T00:24:23.296Z,4.90
2018-11-13T00:26:51.684Z,3.93
2018-11-13T00:29:20.230Z,4.63
2018-11-13T00:31:48.575Z,4.63
2018-11-13T00:34:16.958Z,4.97
2018-11-13T00:36:45.377Z,4.60
2018-11-13T00:39:14.535Z,5.60
2018-11-13T00:41:42.873Z,5.97
2018-11-13T00:44:12.013Z,5.47
2018-11-13T00:46:40.394Z,5.47
2018-11-13T00:49:09.544Z,4.53
2018-11-13T00:51:38.295Z,4.63
2018-11-13T00:54:06.722Z,4.50
2018-11-13T00:56:35.277Z,3.60
2018-11-13T00:59:03.675Z,4.80
2018-11-13T01:01:32.129Z,4.70
2018-11-13T01:04:00.517Z,4.97
2018-11-13T01:06:31.945Z,5.17
2018-11-13T01:09:00.509Z,6.03
2018-11-13T01:11:28.929Z,5.63
2018-11-13T01:13:57.292Z,6.00
2018-11-13T01:16:25.625Z,6.30
2018-11-13T01:18:54.072Z,6.67
2018-11-13T01:21:22.432Z,7.40
2018-11-13T01:23:50.740Z,7.57
2018-11-13T01:26:19.068Z,7.80
2018-11-13T01:28:47.463Z,7.30
2018-11-13T01:31:15.868Z,6.80
2018-11-13T01:33:44.177Z,7.50
2018-11-13T01:36:12.667Z,7.80
2018-11-13T01:38:40.967Z,8.00
2018-11-13T01:41:09.284Z,8.37
2018-11-13T01:43:37.604Z,7.70
2018-11-13T01:46:06.089Z,7.33
2018-11-13T01:48:34.402Z,7.37
2018-11-13T01:51:02.712Z,8.30
2018-11-13T01:53:31.081Z,8.37
2018-11-13T01:55:59.495Z,7.50
2018-11-13T01:58:27.791Z,7.50
2018-11-13T02:00:56.203Z,7.53
2018-11-13T02:03:24.607Z,7.30
2018-11-13T02:05:53.020Z,7.23
2018-11-13T02:08:21.329Z,7.07
2018-11-13T02:10:49.663Z,6.37
2018-11-13T02:13:17.964Z,5.90
2018-11-13T02:15:46.349Z,5.87
2018-11-13T02:18:14.661Z,6.23
2018-11-13T02:20:42.980Z,5.57
2018-11-13T02:23:11.327Z,7.30
2018-11-13T02:25:39.635Z,5.33
2018-11-13T02:28:07.949Z,5.17
2018-11-13T02:30:36.286Z,5.00
2018-11-13T02:33:04.887Z,4.73
2018-11-13T02:35:33.636Z,4.53
2018-11-13T02:38:01.848Z,4.90
2018-11-13T02:40:30.217Z,4.80
2018-11-13T02:42:58.723Z,5.47
2018-11-13T02:45:27.096Z,4.63
2018-11-13T02:47:55.465Z,4.67
2018-11-13T02:50:23.785Z,4.67
2018-11-13T02:52:52.107Z,4.03
2018-11-13T02:55:20.460Z,4.80
2018-11-13T02:57:48.797Z,3.70
2018-11-13T03:00:18.667Z,3.77
2018-11-13T03:02:47.120Z,3.83
2018-11-13T03:05:16.655Z,3.87
2018-11-13T03:07:45.088Z,3.63
2018-11-13T03:10:14.635Z,3.47
2018-11-13T03:12:43.149Z,3.37
2018-11-13T03:15:13.738Z,3.60
2018-11-13T03:17:42.200Z,3.70
2018-11-13T03:20:13.138Z,3.60
2018-11-13T03:22:42.006Z,3.70
2018-11-13T03:25:12.803Z,3.97
2018-11-13T03:27:41.187Z,4.10
2018-11-13T03:30:11.768Z,4.20
2018-11-13T03:32:40.165Z,4.10
2018-11-13T03:35:08.589Z,3.47
2018-11-13T03:37:36.984Z,3.40
2018-11-13T03:40:06.171Z,2.80
2018-11-13T03:42:34.651Z,2.73
2018-11-13T03:45:03.046Z,2.83
2018-11-13T03:47:31.412Z,2.77
2018-11-13T03:49:59.815Z,2.37
2018-11-13T03:52:28.209Z,2.03
2018-11-13T03:54:56.592Z,2.60
2018-11-13T03:57:25.021Z,2.80
2018-11-13T03:59:53.323Z,2.60
2018-11-13T04:02:21.700Z,2.90
2018-11-13T04:04:50.094Z,2.30
2018-11-13T04:07:18.464Z,2.30
2018-11-13T04:09:46.827Z,2.80
2018-11-13T04:12:15.238Z,2.20
2018-11-13T04:14:43.729Z,2.70
2018-11-13T04:17:12.109Z,2.90
2018-11-13T04:19:40.656Z,2.60
2018-11-13T04:22:09.085Z,2.47
2018-11-13T04:24:37.477Z,2.30
2018-11-13T04:27:05.911Z,1.93
2018-11-13T04:29:34.361Z,2.13
2018-11-13T04:32:02.873Z,2.63
2018-11-13T04:34:31.267Z,2.23
2018-11-13T04:36:59.710Z,2.40
2018-11-13T04:39:28.103Z,2.20
2018-11-13T04:41:56.401Z,2.07
2018-11-13T04:44:24.806Z,2.13
2018-11-13T04:46:53.238Z,1.90
2018-11-13T04:49:21.732Z,2.00
2018-11-13T04:51:50.147Z,1.77
2018-11-13T04:54:18.572Z,1.90
2018-11-13T04:56:47.020Z,2.13
2018-11-13T04:59:15.424Z,2.00
2018-11-13T05:01:43.852Z,2.00
2018-11-13T05:04:12.217Z,1.50
2018-11-13T05:06:40.564Z,1.87
2018-11-13T05:09:08.964Z,1.30
2018-11-13T05:11:37.492Z,1.63
2018-11-13T05:14:06.051Z,1.67
2018-11-13T05:16:34.467Z,1.60
2018-11-13T05:19:02.851Z,1.70
2018-11-13T05:21:31.303Z,1.60
2018-11-13T05:23:59.784Z,1.90
2018-11-13T05:26:28.181Z,1.43
2018-11-13T05:28:56.639Z,1.60
2018-11-13T05:31:25.056Z,1.73
2018-11-13T05:33:53.418Z,1.50
2018-11-13T05:36:21.852Z,1.70
2018-11-13T05:38:50.197Z,1.90
2018-11-13T05:41:18.568Z,1.80
2018-11-13T05:43:46.947Z,2.00
2018-11-13T05:46:15.323Z,1.93
2018-11-13T05:48:43.707Z,1.63
2018-11-13T05:51:12.136Z,1.83
2018-11-13T05:53:40.504Z,1.47
2018-11-13T05:56:08.844Z,1.80
2018-11-13T05:58:37.450Z,1.70
2018-11-13T06:01:06.044Z,1.70
2018-11-13T06:03:34.424Z,2.00
2018-11-13T06:06:02.920Z,1.90
2018-11-13T06:08:31.349Z,1.50
2018-11-13T06:10:59.583Z,1.40
2018-11-13T06:13:27.912Z,1.90
2018-11-13T06:15:56.372Z,1.53
2018-11-13T06:18:24.749Z,2.23
2018-11-13T06:20:52.977Z,2.17
2018-11-13T06:23:21.344Z,1.90
2018-11-13T06:25:49.672Z,1.90
2018-11-13T06:28:18.028Z,1.93
2018-11-13T06:30:46.356Z,2.40
2018-11-13T06:33:14.783Z,2.60
2018-11-13T06:35:43.215Z,2.00
2018-11-13T06:38:11.739Z,2.00
2018-11-13T06:40:40.242Z,2.00
2018-11-13T06:43:08.647Z,2.30
2018-11-13T06:45:37.040Z,2.30
2018-11-13T06:48:05.808Z,2.37
2018-11-13T06:50:34.196Z,2.40
2018-11-13T06:53:02.600Z,2.13
2018-11-13T06:55:32.997Z,2.50
2018-11-13T06:58:01.339Z,2.43
2018-11-13T07:00:29.614Z,2.80
2018-11-13T07:02:58.070Z,3.07
2018-11-13T07:05:26.348Z,2.90
2018-11-13T07:07:54.627Z,2.70
2018-11-13T07:10:24.090Z,2.10
2018-11-13T07:12:53.011Z,2.50
2018-11-13T07:15:23.189Z,3.23
2018-11-13T07:17:53.679Z,2.63
2018-11-13T07:20:23.009Z,3.20
2018-11-13T07:22:51.336Z,3.70
2018-11-13T07:25:19.733Z,2.97
2018-11-13T07:27:48.134Z,3.50
2018-11-13T07:30:17.443Z,2.87
2018-11-13T07:32:45.800Z,3.20
2018-11-13T07:35:15.707Z,3.60
2018-11-13T07:37:48.471Z,3.40
2018-11-13T07:40:17.296Z,3.43
2018-11-13T07:42:45.712Z,2.57
2018-11-13T07:45:25.951Z,3.40
2018-11-13T07:47:57.311Z,3.00
2018-11-13T07:50:28.133Z,3.20
2018-11-13T07:52:56.605Z,3.30
2018-11-13T07:55:24.905Z,3.67
2018-11-13T07:57:53.323Z,3.10
2018-11-13T08:00:22.967Z,2.97
2018-11-13T08:02:52.569Z,3.07
2018-11-13T08:05:21.022Z,2.63
2018-11-13T08:07:49.388Z,2.57
2018-11-13T08:10:17.688Z,2.67
2018-11-13T08:12:46.418Z,3.20
2018-11-13T08:15:16.082Z,2.90
2018-11-13T08:17:44.383Z,2.50
2018-11-13T08:20:13.888Z,2.40
2018-11-13T08:22:42.513Z,2.20
2018-11-13T08:25:11.235Z,2.37
2018-11-13T08:27:40.374Z,2.50
2018-11-13T08:30:12.700Z,2.10
2018-11-13T08:32:40.980Z,2.07
2018-11-13T08:35:09.349Z,2.00
2018-11-13T08:37:37.740Z,1.90
2018-11-13T08:40:07.925Z,1.70
2018-11-13T08:42:36.239Z,1.60
2018-11-13T08:45:04.621Z,1.40
2018-11-13T08:47:32.920Z,1.90
2018-11-13T08:50:01.895Z,1.87
2018-11-13T08:52:30.704Z,1.50
2018-11-13T08:54:59.033Z,1.83
2018-11-13T08:57:27.688Z,2.10
2018-11-13T08:59:55.989Z,2.00
2018-11-13T09:02:24.331Z,1.90
2018-11-13T09:04:52.879Z,1.60
2018-11-13T09:07:21.167Z,1.83
2018-11-13T09:09:49.494Z,1.60
2018-11-13T09:12:17.860Z,2.03
2018-11-13T09:14:46.166Z,2.00
2018-11-13T09:17:14.610Z,1.70
2018-11-13T09:19:42.975Z,1.83
2018-11-13T09:22:11.184Z,2.70
2018-11-13T09:24:39.456Z,1.80
2018-11-13T09:27:07.745Z,1.90
2018-11-13T09:29:36.109Z,2.10
2018-11-13T09:32:04.403Z,2.10
2018-11-13T09:34:32.770Z,1.67
2018-11-13T09:37:01.215Z,2.00
2018-11-13T09:39:29.644Z,1.87
2018-11-13T09:41:58.104Z,2.50
2018-11-13T09:44:26.583Z,2.10
2018-11-13T09:46:54.994Z,1.77
2018-11-13T09:49:23.510Z,1.87
2018-11-13T09:51:52.028Z,1.90
2018-11-13T09:54:20.414Z,1.70
2018-11-13T09:56:48.817Z,3.07
2018-11-13T09:59:17.824Z,1.90
2018-11-13T10:01:46.757Z,1.97
2018-11-13T10:04:15.810Z,2.20
2018-11-13T10:06:44.259Z,1.93
2018-11-13T10:09:14.104Z,2.03
2018-11-13T10:11:44.283Z,2.40
2018-11-13T10:14:13.871Z,2.37
2018-11-13T10:16:43.071Z,1.70
2018-11-13T10:19:12.563Z,1.97
2018-11-13T10:21:48.687Z,1.90
2018-11-13T10:24:18.054Z,2.47
2018-11-13T10:26:47.061Z,1.80
2018-11-13T10:29:16.338Z,1.70
2018-11-13T10:31:45.646Z,2.30
2018-11-13T10:34:14.690Z,2.20
2018-11-13T10:36:43.609Z,1.70
2018-11-13T10:39:12.945Z,1.87
2018-11-13T10:41:42.035Z,1.97
2018-11-13T10:44:10.882Z,2.30
2018-11-13T10:46:40.124Z,1.63
2018-11-13T10:49:09.378Z,1.63
2018-11-13T10:51:39.720Z,1.67
2018-11-13T10:54:08.894Z,1.77
2018-11-13T10:56:38.366Z,1.60
2018-11-13T10:59:07.485Z,1.67
2018-11-13T11:01:42.041Z,1.87
2018-11-13T11:04:16.051Z,1.70
2018-11-13T11:06:44.763Z,1.50
2018-11-13T11:09:13.453Z,1.60
2018-11-13T11:11:42.411Z,1.40
2018-11-13T11:14:11.393Z,1.97
2018-11-13T11:16:40.412Z,1.43
2018-11-13T11:19:09.604Z,1.57
2018-11-13T11:21:39.761Z,1.90
2018-11-13T11:24:08.723Z,1.30
2018-11-13T11:26:36.987Z,1.60
2018-11-13T11:29:13.063Z,1.70
2018-11-13T11:31:41.592Z,1.50
2018-11-13T11:34:09.933Z,2.23
2018-11-13T11:36:38.250Z,1.60
2018-11-13T11:39:08.508Z,1.73
2018-11-13T11:41:37.042Z,1.80
2018-11-13T11:44:06.327Z,1.60
2018-11-13T11:46:34.771Z,1.53
2018-11-13T11:49:04.049Z,1.47
2018-11-13T11:51:34.195Z,1.40
2018-11-13T11:54:04.308Z,1.20
2018-11-13T11:56:32.669Z,1.83
2018-11-13T11:59:01.042Z,1.40
2018-11-13T12:01:29.494Z,1.27
2018-11-13T12:03:57.759Z,1.53
2018-11-13T12:06:26.063Z,1.97
2018-11-13T12:08:55.315Z,1.60
2018-11-13T12:11:23.596Z,1.50
2018-11-13T12:13:51.891Z,1.73
2018-11-13T12:16:20.196Z,1.67
2018-11-13T12:18:48.502Z,1.40
2018-11-13T12:21:16.857Z,1.20
2018-11-13T12:23:45.221Z,1.20
2018-11-13T12:26:13.505Z,1.37
2018-11-13T12:28:41.784Z,1.40
2018-11-13T12:31:10.099Z,1.30
2018-11-13T12:33:38.380Z,1.47
2018-11-13T12:36:06.657Z,1.67
2018-11-13T12:38:34.936Z,1.40
2018-11-13T12:41:05.558Z,1.00
2018-11-13T12:46:18.091Z,1.20
2018-11-13T12:48:47.810Z,1.13
2018-11-13T12:51:22.989Z,1.23
2018-11-13T12:53:51.857Z,1.30
2018-11-13T12:56:20.467Z,1.10
2018-11-13T12:58:50.376Z,1.30
2018-11-13T13:01:18.911Z,1.30
2018-11-13T13:03:47.441Z,1.77
2018-11-13T13:06:16.238Z,1.50
2018-11-13T13:08:44.808Z,1.70
2018-11-13T13:11:13.416Z,1.80
2018-11-13T13:13:44.417Z,1.20
2018-11-13T13:16:14.556Z,1.60
2018-11-13T13:18:43.158Z,1.10
2018-11-13T13:21:11.597Z,1.30
2018-11-13T13:23:40.015Z,1.40
2018-11-13T13:26:08.955Z,1.53
2018-11-13T13:28:37.387Z,2.20
2018-11-13T13:31:06.069Z,1.83
2018-11-13T13:33:34.466Z,1.83
2018-11-13T13:36:04.563Z,1.53
2018-11-13T13:38:34.531Z,1.83
2018-11-13T13:41:03.649Z,1.70
2018-11-13T13:43:32.768Z,1.60
2018-11-13T13:46:01.281Z,1.30
2018-11-13T13:48:29.815Z,1.20
2018-11-13T13:50:58.579Z,1.93
2018-11-13T13:53:27.690Z,1.37
2018-11-13T13:55:56.058Z,2.13
2018-11-13T13:58:24.917Z,1.50
2018-11-13T14:00:53.639Z,2.37
2018-11-13T14:03:21.848Z,1.90
2018-11-13T14:05:50.161Z,1.83
2018-11-13T14:08:19.036Z,1.87
2018-11-13T14:10:47.429Z,1.70
2018-11-13T14:13:16.009Z,1.50
2018-11-13T14:15:44.424Z,1.97
2018-11-13T14:18:13.198Z,2.23
2018-11-13T14:20:41.570Z,1.80
2018-11-13T14:23:09.812Z,2.00
2018-11-13T14:25:38.213Z,1.80
2018-11-13T14:28:06.539Z,2.03
2018-11-13T14:30:36.085Z,2.53
2018-11-13T14:33:06.494Z,2.40
2018-11-13T14:35:35.021Z,2.50
2018-11-13T14:38:03.612Z,2.17
2018-11-13T14:40:36.401Z,1.83
2018-11-13T14:43:05.575Z,1.63
2018-11-13T14:45:34.028Z,2.20
2018-11-13T14:48:02.384Z,1.90
2018-11-13T14:50:32.125Z,2.93
2018-11-13T14:53:00.691Z,2.40
2018-11-13T14:55:31.581Z,2.13
2018-11-13T14:58:00.700Z,2.37
2018-11-13T15:00:30.041Z,3.00
2018-11-13T15:02:58.919Z,2.80
2018-11-13T15:05:27.828Z,3.37
2018-11-13T15:07:57.549Z,2.40
2018-11-13T15:10:31.974Z,2.80
2018-11-13T15:13:00.303Z,2.67
2018-11-13T15:15:28.588Z,2.40
2018-11-13T15:17:56.901Z,2.60
2018-11-13T15:20:25.224Z,2.33
2018-11-13T15:22:53.529Z,2.47
2018-11-13T15:25:21.839Z,2.90
2018-11-13T15:27:50.128Z,3.00
2018-11-13T15:30:26.756Z,2.77
2018-11-13T15:33:26.429Z,2.37
2018-11-13T15:35:54.794Z,2.33
2018-11-13T15:38:23.200Z,2.37
2018-11-13T15:40:51.688Z,3.37
2018-11-13T15:43:20.106Z,2.60
2018-11-13T15:45:48.516Z,2.43
2018-11-13T15:48:17.129Z,3.27
2018-11-13T15:50:45.588Z,2.60
2018-11-13T15:53:13.980Z,2.80
2018-11-13T15:55:42.464Z,3.27
2018-11-13T15:58:10.897Z,3.23
2018-11-13T16:00:40.624Z,3.23
2018-11-13T16:03:11.444Z,4.07
2018-11-13T16:05:42.174Z,3.53
2018-11-13T16:08:10.954Z,3.80
2018-11-13T16:10:39.277Z,3.93
2018-11-13T16:13:07.796Z,3.30
2018-11-13T16:15:37.133Z,3.30
2018-11-13T16:18:06.856Z,3.30
2018-11-13T16:20:35.160Z,3.40
2018-11-13T16:23:03.512Z,2.80
2018-11-13T16:25:31.859Z,3.40
2018-11-13T16:28:00.309Z,3.53
2018-11-13T16:30:30.420Z,3.33
2018-11-13T16:32:58.529Z,3.57
2018-11-13T16:35:27.772Z,3.90
2018-11-13T16:37:57.019Z,3.70
2018-11-13T16:40:26.606Z,4.13
2018-11-13T16:42:55.035Z,3.77
2018-11-13T16:45:25.014Z,3.60
2018-11-13T16:47:54.977Z,5.20
2018-11-13T16:50:26.595Z,3.70
2018-11-13T16:52:55.687Z,3.70
2018-11-13T16:55:29.658Z,3.80
2018-11-13T16:58:01.986Z,4.97
2018-11-13T17:00:32.015Z,4.27
2018-11-13T17:03:01.913Z,4.70
2018-11-13T17:05:32.751Z,5.00
2018-11-13T17:08:02.818Z,5.10
2018-11-13T17:10:33.707Z,4.67
2018-11-13T17:13:06.243Z,5.20
2018-11-13T17:15:34.944Z,5.03
2018-11-13T17:18:03.890Z,6.83
2018-11-13T17:20:32.372Z,4.60
2018-11-13T17:23:01.246Z,5.17
2018-11-13T17:25:33.438Z,4.53
2018-11-13T17:28:04.190Z,5.03
2018-11-13T17:30:35.724Z,5.30
2018-11-13T17:33:06.852Z,4.90
2018-11-13T17:35:37.007Z,5.20
2018-11-13T17:38:07.885Z,4.97
2018-11-13T17:40:38.203Z,4.90
2018-11-13T17:43:08.433Z,5.00
2018-11-13T17:45:40.307Z,5.60
2018-11-13T17:48:11.136Z,5.73
2018-11-13T17:50:41.768Z,5.03
2018-11-13T17:53:11.851Z,5.60
2018-11-13T17:55:41.663Z,5.47
2018-11-13T17:58:13.648Z,4.83
2018-11-13T18:00:46.003Z,5.20
2018-11-13T18:03:16.476Z,5.33
2018-11-13T18:05:48.986Z,5.20
2018-11-13T18:08:22.048Z,5.00
2018-11-13T18:10:51.471Z,5.80
2018-11-13T18:13:21.167Z,4.80
2018-11-13T18:15:50.718Z,5.03
2018-11-13T18:18:20.429Z,4.73
2018-11-13T18:20:50.434Z,4.67
2018-11-13T18:23:20.263Z,4.37
2018-11-13T18:25:51.362Z,3.90
2018-11-13T18:28:21.561Z,4.20
2018-11-13T18:30:51.289Z,5.30
2018-11-13T18:33:22.403Z,5.53
2018-11-13T18:35:53.521Z,5.40
2018-11-13T18:38:25.171Z,4.90
2018-11-13T18:40:55.348Z,5.10
2018-11-13T18:43:26.101Z,4.97
2018-11-13T18:45:56.232Z,4.80
2018-11-13T18:48:26.643Z,4.40
2018-11-13T18:50:56.234Z,4.57
2018-11-13T18:53:25.679Z,5.30
2018-11-13T18:55:55.245Z,5.40
2018-11-13T18:58:25.557Z,4.27
2018-11-13T19:00:56.006Z,5.13
2018-11-13T19:03:25.940Z,5.13
2018-11-13T19:05:55.556Z,4.63
2018-11-13T19:08:32.297Z,5.17
2018-11-13T19:11:03.853Z,5.13
2018-11-13T19:13:33.723Z,5.23
2018-11-13T19:16:05.738Z,5.77
2018-11-13T19:18:35.448Z,5.53
2018-11-13T19:21:04.154Z,6.20
2018-11-13T19:23:32.457Z,5.40
2018-11-13T19:26:00.892Z,5.90
2018-11-13T19:28:29.268Z,5.50
2018-11-13T19:30:57.746Z,5.80
2018-11-13T19:33:26.139Z,7.00
2018-11-13T19:35:54.546Z,5.27
2018-11-13T19:38:22.908Z,6.00
2018-11-13T19:40:51.299Z,6.70
2018-11-13T19:43:19.617Z,5.40
2018-11-13T19:45:48.049Z,6.03
2018-11-13T19:48:16.425Z,6.30
2018-11-13T19:50:44.806Z,6.23
2018-11-13T19:53:13.181Z,7.10
2018-11-13T19:55:41.551Z,5.90
2018-11-13T19:58:09.966Z,6.90
2018-11-13T20:00:42.232Z,6.70
2018-11-13T20:03:11.397Z,7.30
2018-11-13T20:05:41.031Z,7.50
2018-11-13T20:08:10.652Z,6.60
2018-11-13T20:10:40.168Z,8.10
2018-11-13T20:13:09.285Z,6.00
2018-11-13T20:15:38.082Z,6.23
2018-11-13T20:18:06.505Z,6.17
2018-11-13T20:20:35.807Z,5.90
2018-11-13T20:23:05.299Z,6.03
2018-11-13T20:25:34.574Z,6.67
2018-11-13T20:28:08.755Z,5.90
2018-11-13T20:30:39.433Z,7.20
2018-11-13T20:33:07.858Z,6.50
2018-11-13T20:35:36.247Z,5.63
2018-11-13T20:38:07.656Z,6.40
2018-11-13T20:40:36.760Z,5.60
2018-11-13T20:43:06.505Z,7.47
2018-11-13T20:45:34.789Z,5.20
2018-11-13T20:48:03.080Z,6.00
2018-11-13T20:50:32.461Z,6.97
2018-11-13T20:53:00.775Z,5.43
2018-11-13T20:55:29.195Z,5.67
2018-11-13T20:57:57.623Z,5.07
2018-11-13T21:00:29.043Z,5.60
2018-11-13T21:02:57.611Z,6.67
2018-11-13T21:05:26.092Z,6.10
2018-11-13T21:07:54.607Z,7.70
2018-11-13T21:10:23.329Z,9.00
2018-11-13T21:12:52.491Z,8.43
2018-11-13T21:18:13.312Z,8.27
2018-11-13T21:20:41.888Z,7.27
2018-11-13T21:23:10.287Z,6.90
2018-11-13T21:25:38.680Z,7.50
2018-11-13T21:28:07.084Z,7.40
2018-11-13T21:30:35.662Z,8.40
2018-11-13T21:33:04.091Z,8.33
2018-11-13T21:35:32.645Z,7.80
2018-11-13T21:38:01.111Z,7.63
2018-11-13T21:40:29.603Z,9.17
2018-11-13T21:42:58.311Z,8.60
2018-11-13T21:45:28.224Z,8.33
2018-11-13T21:47:56.580Z,7.73
2018-11-13T21:50:26.622Z,9.03
2018-11-13T21:52:54.854Z,7.70
2018-11-13T21:55:24.323Z,7.43
2018-11-13T21:57:52.823Z,6.60
2018-11-13T22:00:24.000Z,8.00
2018-11-13T22:02:56.761Z,6.43
2018-11-13T22:05:26.120Z,7.90
2018-11-13T22:07:54.489Z,7.73
2018-11-13T22:10:22.992Z,8.50
2018-11-13T22:12:51.381Z,7.70
2018-11-13T22:15:21.162Z,7.03
2018-11-13T22:17:49.630Z,7.87
2018-11-13T22:20:18.662Z,7.63
2018-11-13T22:22:48.227Z,6.90
2018-11-13T22:25:19.033Z,8.30
2018-11-13T22:27:48.513Z,8.37
2018-11-13T22:30:18.135Z,7.87
2018-11-13T22:32:47.899Z,7.40
2018-11-13T22:35:16.777Z,7.07
2018-11-13T22:37:45.256Z,7.77
2018-11-13T22:40:17.462Z,8.77
2018-11-13T22:42:46.259Z,7.20
2018-11-13T22:45:17.213Z,7.63
2018-11-13T22:47:45.591Z,7.53
2018-11-13T22:50:17.227Z,8.40
2018-11-13T22:52:45.999Z,6.60
2018-11-13T22:55:15.031Z,7.63
2018-11-13T22:57:44.207Z,6.30
2018-11-13T23:00:18.171Z,7.00
2018-11-13T23:02:46.996Z,6.73
2018-11-13T23:05:15.382Z,6.57
2018-11-13T23:07:43.795Z,5.80
2018-11-13T23:10:13.300Z,6.57
2018-11-13T23:12:43.551Z,6.67
2018-11-13T23:15:15.312Z,6.33
2018-11-13T23:17:44.796Z,5.77
2018-11-13T23:20:16.718Z,6.40
2018-11-13T23:22:46.305Z,5.60
2018-11-13T23:25:17.312Z,6.80
2018-11-13T23:27:47.240Z,5.80
2018-11-13T23:30:18.691Z,6.23
2018-11-13T23:32:48.322Z,5.80
2018-11-13T23:35:17.214Z,5.80
2018-11-13T23:37:46.802Z,6.57
2018-11-13T23:40:16.331Z,5.90
2018-11-13T23:42:46.198Z,6.87
2018-11-13T23:45:16.589Z,7.23
2018-11-13T23:47:45.303Z,6.50
2018-11-13T23:50:13.868Z,6.90
2018-11-13T23:52:42.483Z,6.57
2018-11-13T23:55:11.896Z,7.20
2018-11-13T23:57:40.840Z,6.70
